KSUU/SUU METAR and TAF weather

Enter ICAO airport designator
Station Type Date Time Source
KSUU METAR 2022/01/23 11:28 UTC NOAA

KSUU 231128Z AUTO 10003KT 2 3/4SM BR CLR 02/01 A3023 RMK AO2 SLP244 $


Station Type Date Time Source
KSUU Decoded METAR 2022/01/23 11:28 UTC NOAA

Fairfield / Travis Air Force Base, CA, United States (KSUU) 38-16N 121-57W 22M
Jan 23, 2022 - 06:28 AM EST / 2022.01.23 1128 UTC
Wind: from the E (100 degrees) at 3 MPH (3 KT):0
Visibility: 2 3/4 mile(s):0
Sky conditions: clear
Weather: mist
Temperature: 35 F (2 C)
Dew Point: 33 F (1 C)
Relative Humidity: 93%
Pressure (altimeter): 30.23 in. Hg (1023 hPa)
ob: KSUU 231128Z AUTO 10003KT 2 3/4SM BR CLR 02/01 A3023 RMK AO2 SLP244
cycle: 11

Station Type Date Time Source
KSUU TAF 2022/01/23 11:57 UTC NOAA

TAF KSUU 231100Z 2311/2417 VRB06KT 6000 BR SKC QNH3022INS
TEMPO 2313/2316 3600 BR
BECMG 2317/2318 VRB06KT 9999 NSW SKC QNH3019INS TX17/2323Z TN01/2314Z

Example: see airport list